createdAt,value
2018-04-29T00:02:13.009Z,3.70
2018-04-29T00:04:39.346Z,4.20
2018-04-29T00:07:05.689Z,4.03
2018-04-29T00:09:32.028Z,4.27
2018-04-29T00:11:58.318Z,4.10
2018-04-29T00:14:25.336Z,4.70
2018-04-29T00:16:51.466Z,4.77
2018-04-29T00:19:17.815Z,4.37
2018-04-29T00:21:44.134Z,4.63
2018-04-29T00:24:10.443Z,5.30
2018-04-29T00:26:36.747Z,4.93
2018-04-29T00:29:03.101Z,4.83
2018-04-29T00:31:29.447Z,4.63
2018-04-29T00:33:56.592Z,4.50
2018-04-29T00:36:22.934Z,4.47
2018-04-29T00:38:49.243Z,4.60
2018-04-29T00:41:15.555Z,4.93
2018-04-29T00:43:41.882Z,4.80
2018-04-29T00:46:08.210Z,5.00
2018-04-29T00:48:34.534Z,4.67
2018-04-29T00:51:00.837Z,4.90
2018-04-29T00:53:27.166Z,4.90
2018-04-29T00:55:54.223Z,4.70
2018-04-29T00:58:20.617Z,4.70
2018-04-29T01:00:46.971Z,4.30
2018-04-29T01:03:13.463Z,4.67
2018-04-29T01:05:39.574Z,4.30
2018-04-29T01:08:05.916Z,4.60
2018-04-29T01:10:32.348Z,5.10
2018-04-29T01:12:58.682Z,4.50
2018-04-29T01:15:25.063Z,5.00
2018-04-29T01:17:51.358Z,4.90
2018-04-29T01:20:17.667Z,4.60
2018-04-29T01:22:43.970Z,4.97
2018-04-29T01:25:10.303Z,4.73
2018-04-29T01:27:36.606Z,4.80
2018-04-29T01:30:03.676Z,4.30
2018-04-29T01:32:29.973Z,4.80
2018-04-29T01:34:56.304Z,4.80
2018-04-29T01:37:22.617Z,4.40
2018-04-29T01:39:48.907Z,4.33
2018-04-29T01:42:15.235Z,4.33
2018-04-29T01:44:41.555Z,4.80
2018-04-29T01:47:07.862Z,3.87
2018-04-29T01:49:34.894Z,4.80
2018-04-29T01:52:01.340Z,4.07
2018-04-29T01:54:27.679Z,4.53
2018-04-29T01:56:53.990Z,4.10
2018-04-29T01:59:20.732Z,4.18
2018-04-29T02:01:47.117Z,3.73
2018-04-29T02:04:13.419Z,4.13
2018-04-29T02:06:40.460Z,4.50
2018-04-29T02:09:06.778Z,4.55
2018-04-29T02:11:33.166Z,5.43
2018-04-29T02:14:00.208Z,4.40
2018-04-29T02:16:26.321Z,4.40
2018-04-29T02:18:52.446Z,3.67
2018-04-29T02:21:18.562Z,4.93
2018-04-29T02:23:44.859Z,4.57
2018-04-29T02:26:11.159Z,4.62
2018-04-29T02:28:37.504Z,4.20
2018-04-29T02:31:03.879Z,4.60
2018-04-29T02:33:30.925Z,4.30
2018-04-29T02:35:58.010Z,4.45
2018-04-29T02:38:25.046Z,4.50
2018-04-29T02:40:51.188Z,4.85
2018-04-29T02:43:18.268Z,4.87
2018-04-29T02:45:45.303Z,4.93
2018-04-29T02:48:12.379Z,4.93
2018-04-29T02:50:39.231Z,4.07
2018-04-29T02:53:06.278Z,4.30
2018-04-29T02:55:32.413Z,4.45
2018-04-29T02:57:58.523Z,4.72
2018-04-29T03:00:24.826Z,4.60
2018-04-29T03:02:51.190Z,5.10
2018-04-29T03:05:17.507Z,4.87
2018-04-29T03:07:44.310Z,4.50
2018-04-29T03:10:10.644Z,4.60
2018-04-29T03:12:36.942Z,4.57
2018-04-29T03:15:04.371Z,4.68
2018-04-29T03:17:30.715Z,4.55
2018-04-29T03:19:57.541Z,5.00
2018-04-29T03:22:23.832Z,4.60
2018-04-29T03:24:50.578Z,4.97
2018-04-29T03:27:16.687Z,4.80
2018-04-29T03:29:43.730Z,5.10
2018-04-29T03:32:09.839Z,5.28
2018-04-29T03:34:36.934Z,4.35
2018-04-29T03:37:03.139Z,5.20
2018-04-29T03:39:29.446Z,5.03
2018-04-29T03:41:55.573Z,4.57
2018-04-29T03:44:21.872Z,4.85
2018-04-29T03:46:48.919Z,5.45
2018-04-29T03:49:15.984Z,4.95
2018-04-29T03:51:43.014Z,4.65
2018-04-29T03:54:09.138Z,5.12
2018-04-29T03:56:35.436Z,5.10
2018-04-29T03:59:13.810Z,4.80
2018-04-29T04:01:53.276Z,5.12
2018-04-29T04:04:19.383Z,4.30
2018-04-29T04:06:45.679Z,5.50
2018-04-29T04:09:11.977Z,4.82
2018-04-29T04:11:38.125Z,5.55
2018-04-29T04:14:04.437Z,4.65
2018-04-29T04:16:32.031Z,5.07
2018-04-29T04:18:58.151Z,5.15
2018-04-29T04:21:24.303Z,4.80
2018-04-29T04:23:50.432Z,5.30
2018-04-29T04:26:16.663Z,5.35
2018-04-29T04:28:42.991Z,5.20
2018-04-29T04:31:10.043Z,5.40
2018-04-29T04:33:36.925Z,6.28
2018-04-29T04:36:03.815Z,5.00
2018-04-29T04:38:29.954Z,5.90
2018-04-29T04:40:56.095Z,5.22
2018-04-29T04:43:22.230Z,5.30
2018-04-29T04:45:48.550Z,5.80
2018-04-29T04:48:14.887Z,5.43
2018-04-29T04:50:41.059Z,5.60
2018-04-29T04:53:07.323Z,5.90
2018-04-29T04:55:34.411Z,7.05
2018-04-29T04:58:00.523Z,5.20
2018-04-29T05:00:27.380Z,5.82
2018-04-29T05:02:54.513Z,6.35
2018-04-29T05:05:20.678Z,5.55
2018-04-29T05:07:48.632Z,5.53
2018-04-29T05:10:14.766Z,6.78
2018-04-29T05:12:40.899Z,6.32
2018-04-29T05:15:07.062Z,6.45
2018-04-29T05:17:33.908Z,6.85
2018-04-29T05:20:00.028Z,7.00
2018-04-29T05:22:26.182Z,6.75
2018-04-29T05:24:52.314Z,6.30
2018-04-29T05:27:18.435Z,7.30
2018-04-29T05:29:44.533Z,7.72
2018-04-29T05:32:10.682Z,6.47
2018-04-29T05:34:36.786Z,7.37
2018-04-29T05:37:03.667Z,8.23
2018-04-29T05:39:30.008Z,7.10
2018-04-29T05:41:56.110Z,6.90
2018-04-29T05:44:22.198Z,7.00
2018-04-29T05:46:48.299Z,6.37
2018-04-29T05:49:14.419Z,6.30
2018-04-29T05:51:40.662Z,6.33
2018-04-29T05:54:07.157Z,6.30
2018-04-29T05:56:33.494Z,6.27
2018-04-29T05:58:59.811Z,6.97
2018-04-29T06:01:26.102Z,5.80
2018-04-29T06:03:52.394Z,6.53
2018-04-29T06:06:18.687Z,6.07
2018-04-29T06:08:46.524Z,6.20
2018-04-29T06:11:12.614Z,5.70
2018-04-29T06:13:38.936Z,6.27
2018-04-29T06:16:05.281Z,5.93
2018-04-29T06:18:31.727Z,5.83
2018-04-29T06:20:58.074Z,5.30
2018-04-29T06:23:24.398Z,4.70
2018-04-29T06:25:51.525Z,5.77
2018-04-29T06:28:17.791Z,6.10
2018-04-29T06:30:44.850Z,5.77
2018-04-29T06:33:11.202Z,5.70
2018-04-29T06:35:37.523Z,5.30
2018-04-29T06:38:03.627Z,6.03
2018-04-29T06:40:29.959Z,5.80
2018-04-29T06:42:56.302Z,6.00
2018-04-29T06:45:22.606Z,6.93
2018-04-29T06:47:48.930Z,6.07
2018-04-29T06:50:15.262Z,6.67
2018-04-29T06:52:41.585Z,7.47
2018-04-29T06:55:07.905Z,8.30
2018-04-29T06:57:34.205Z,8.20
2018-04-29T07:00:00.542Z,8.23
2018-04-29T07:02:26.866Z,7.40
2018-04-29T07:04:53.462Z,8.23
2018-04-29T07:07:19.814Z,7.70
2018-04-29T07:09:46.138Z,8.30
2018-04-29T07:12:12.474Z,7.90
2018-04-29T07:14:38.804Z,7.47
2018-04-29T07:17:05.137Z,8.10
2018-04-29T07:19:31.468Z,6.93
2018-04-29T07:21:57.796Z,6.50
2018-04-29T07:24:24.192Z,7.50
2018-04-29T07:26:50.831Z,7.10
2018-04-29T07:29:17.175Z,6.23
2018-04-29T07:31:43.525Z,5.70
2018-04-29T07:34:09.842Z,5.33
2018-04-29T07:36:36.890Z,5.90
2018-04-29T07:39:03.204Z,5.47
2018-04-29T07:41:29.706Z,5.00
2018-04-29T07:43:57.440Z,5.87
2018-04-29T07:46:23.782Z,5.97
2018-04-29T07:48:50.100Z,5.03
2018-04-29T07:51:17.165Z,6.10
2018-04-29T07:53:43.460Z,6.10
2018-04-29T07:56:09.771Z,6.47
2018-04-29T07:58:36.099Z,5.77
2018-04-29T08:01:02.435Z,5.73
2018-04-29T08:03:30.742Z,5.80
2018-04-29T08:05:57.838Z,5.80
2018-04-29T08:08:24.169Z,6.20
2018-04-29T08:10:50.460Z,6.53
2018-04-29T08:13:17.535Z,6.30
2018-04-29T08:15:43.725Z,6.20
2018-04-29T08:18:09.969Z,6.17
2018-04-29T08:20:40.132Z,6.80
2018-04-29T08:23:06.444Z,5.83
2018-04-29T08:25:32.761Z,6.00
2018-04-29T08:27:59.790Z,5.60
2018-04-29T08:30:26.089Z,5.77
2018-04-29T08:32:53.133Z,5.83
2018-04-29T08:35:22.692Z,5.97
2018-04-29T08:37:51.175Z,7.53
2018-04-29T08:40:17.636Z,7.00
2018-04-29T08:42:44.676Z,7.17
2018-04-29T08:45:11.013Z,7.87
2018-04-29T08:47:37.339Z,7.87
2018-04-29T08:50:07.464Z,7.63
2018-04-29T08:52:34.704Z,7.70
2018-04-29T08:55:01.600Z,7.40
2018-04-29T08:57:27.689Z,6.77
2018-04-29T08:59:54.583Z,7.63
2018-04-29T09:02:20.680Z,6.30
2018-04-29T09:04:46.773Z,5.93
2018-04-29T09:07:15.290Z,6.90
2018-04-29T09:09:41.388Z,5.57
2018-04-29T09:12:07.489Z,6.70
2018-04-29T09:14:33.594Z,6.97
2018-04-29T09:16:59.702Z,7.10
2018-04-29T09:19:25.809Z,6.77
2018-04-29T09:21:52.663Z,6.80
2018-04-29T09:24:22.040Z,6.90
2018-04-29T09:26:48.379Z,6.47
2018-04-29T09:29:15.451Z,5.70
2018-04-29T09:31:42.322Z,6.13
2018-04-29T09:34:09.170Z,6.33
2018-04-29T09:36:35.300Z,6.00
2018-04-29T09:39:01.386Z,6.70
2018-04-29T09:41:31.267Z,6.53
2018-04-29T09:43:58.225Z,6.73
2018-04-29T09:46:24.322Z,6.10
2018-04-29T09:48:50.430Z,6.37
2018-04-29T09:51:16.518Z,6.33
2018-04-29T09:53:42.683Z,6.80
2018-04-29T09:56:08.817Z,6.40
2018-04-29T09:58:34.960Z,6.83
2018-04-29T10:01:01.938Z,5.47
2018-04-29T10:03:31.396Z,6.83
2018-04-29T10:05:58.184Z,6.40
2018-04-29T10:08:24.287Z,5.57
2018-04-29T10:10:50.419Z,6.80
2018-04-29T10:13:16.590Z,6.43
2018-04-29T10:15:42.714Z,6.10
2018-04-29T10:18:09.514Z,6.60
2018-04-29T10:20:35.850Z,5.93
2018-04-29T10:23:05.122Z,7.30
2018-04-29T10:25:31.510Z,6.10
2018-04-29T10:27:58.577Z,5.80
2018-04-29T10:30:24.901Z,5.70
2018-04-29T10:32:51.252Z,5.17
2018-04-29T10:35:17.530Z,4.80
2018-04-29T10:37:44.598Z,4.37
2018-04-29T10:40:11.535Z,4.50
2018-04-29T10:42:41.005Z,5.10
2018-04-29T10:45:07.115Z,4.47
2018-04-29T10:47:33.265Z,4.30
2018-04-29T10:49:59.389Z,4.43
2018-04-29T10:52:25.592Z,4.80
2018-04-29T10:54:51.649Z,5.30
2018-04-29T10:57:17.767Z,4.37
2018-04-29T10:59:44.122Z,4.87
2018-04-29T11:02:10.487Z,4.60
2018-04-29T11:04:38.356Z,4.90
2018-04-29T11:07:04.687Z,5.57
2018-04-29T11:09:31.735Z,4.40
2018-04-29T11:11:58.087Z,5.40
2018-04-29T11:14:24.464Z,4.60
2018-04-29T11:16:50.811Z,4.80
2018-04-29T11:21:48.229Z,4.50
2018-04-29T11:24:15.157Z,4.93
2018-04-29T11:26:42.067Z,5.13
2018-04-29T11:29:08.176Z,5.50
2018-04-29T11:31:34.282Z,5.17
2018-04-29T11:34:00.467Z,4.93
2018-04-29T11:36:29.586Z,6.00
2018-04-29T11:38:55.830Z,6.13
2018-04-29T11:41:21.938Z,7.00
2018-04-29T11:43:48.053Z,6.97
2018-04-29T11:46:14.613Z,6.37
2018-04-29T11:48:41.461Z,6.23
2018-04-29T11:51:07.574Z,6.63
2018-04-29T11:53:33.719Z,6.90
2018-04-29T11:58:55.933Z,6.10
2018-04-29T12:01:23.947Z,6.40
2018-04-29T12:03:50.051Z,6.30
2018-04-29T12:06:16.183Z,6.60
2018-04-29T12:08:42.287Z,5.70
2018-04-29T12:11:09.224Z,6.70
2018-04-29T12:13:36.132Z,6.70
2018-04-29T12:16:02.246Z,7.30
2018-04-29T12:18:28.361Z,5.90
2018-04-29T12:20:59.406Z,6.17
2018-04-29T12:23:25.583Z,5.10
2018-04-29T12:25:51.710Z,5.40
2018-04-29T12:28:17.835Z,5.87
2018-04-29T12:30:44.674Z,5.67
2018-04-29T12:33:10.903Z,5.77
2018-04-29T12:35:37.006Z,5.10
2018-04-29T12:38:03.138Z,5.60
2018-04-29T12:40:29.246Z,4.77
2018-04-29T12:42:56.086Z,5.27
2018-04-29T12:45:22.195Z,5.93
2018-04-29T12:47:48.798Z,4.53
2018-04-29T12:50:15.639Z,4.97
2018-04-29T12:52:41.721Z,4.60
2018-04-29T12:55:07.817Z,4.60
2018-04-29T12:57:33.935Z,4.63
2018-04-29T13:00:00.114Z,3.83
2018-04-29T13:02:26.190Z,3.47
2018-04-29T13:04:52.334Z,3.77
2018-04-29T13:07:18.455Z,4.33
2018-04-29T13:09:44.544Z,4.37
2018-04-29T13:12:10.642Z,3.87
2018-04-29T13:14:36.742Z,4.40
2018-04-29T13:17:02.889Z,3.97
2018-04-29T13:19:29.059Z,4.40
2018-04-29T13:21:55.333Z,3.90
2018-04-29T13:24:21.422Z,3.43
2018-04-29T13:26:47.524Z,3.50
2018-04-29T13:29:13.650Z,2.73
2018-04-29T13:31:44.493Z,3.00
2018-04-29T13:34:11.395Z,3.43
2018-04-29T13:36:37.515Z,2.63
2018-04-29T13:39:03.655Z,2.83
2018-04-29T13:41:30.826Z,2.50
2018-04-29T13:43:56.942Z,2.50
2018-04-29T13:46:23.119Z,1.90
2018-04-29T13:48:50.834Z,2.00
2018-04-29T13:51:17.693Z,2.80
2018-04-29T13:53:44.573Z,2.30
2018-04-29T13:56:10.677Z,2.10
2018-04-29T13:58:36.790Z,2.50
2018-04-29T14:01:03.026Z,2.00
2018-04-29T14:03:29.073Z,2.20
2018-04-29T14:05:56.058Z,2.43
2018-04-29T14:08:22.182Z,2.10
2018-04-29T14:10:48.287Z,2.23
2018-04-29T14:13:15.132Z,2.40
2018-04-29T14:15:42.384Z,2.57
2018-04-29T14:18:08.511Z,2.60
2018-04-29T14:20:34.678Z,2.30
2018-04-29T14:23:04.962Z,2.83
2018-04-29T14:25:31.849Z,2.63
2018-04-29T14:27:58.022Z,2.80
2018-04-29T14:30:24.146Z,2.77
2018-04-29T14:32:50.400Z,2.70
2018-04-29T14:35:16.533Z,2.50
2018-04-29T14:37:42.692Z,2.60
2018-04-29T14:40:12.088Z,2.67
2018-04-29T14:42:38.979Z,2.70
2018-04-29T14:45:05.115Z,2.87
2018-04-29T14:47:31.235Z,2.73
2018-04-29T14:49:58.099Z,2.60
2018-04-29T14:52:24.211Z,2.97
2018-04-29T14:54:50.346Z,2.67
2018-04-29T14:57:21.238Z,2.97
2018-04-29T14:59:47.344Z,2.70
2018-04-29T15:02:13.469Z,2.97
2018-04-29T15:04:39.607Z,3.10
2018-04-29T15:07:05.715Z,2.47
2018-04-29T15:09:31.842Z,3.23
2018-04-29T15:11:57.967Z,3.33
2018-04-29T15:14:30.751Z,2.90
2018-04-29T15:16:56.879Z,3.00
2018-04-29T15:19:23.019Z,2.93
2018-04-29T15:21:49.188Z,2.90
2018-04-29T15:24:15.459Z,2.50
2018-04-29T15:26:41.583Z,2.90
2018-04-29T15:29:07.702Z,2.70
2018-04-29T15:31:37.451Z,2.60
2018-04-29T15:34:04.352Z,3.10
2018-04-29T15:36:30.499Z,3.00
2018-04-29T15:38:56.652Z,3.20
2018-04-29T15:41:22.770Z,3.03
2018-04-29T15:43:48.937Z,2.80
2018-04-29T15:46:15.073Z,3.17
2018-04-29T15:48:41.187Z,2.80
2018-04-29T15:51:08.414Z,2.47
2018-04-29T15:53:38.117Z,3.17
2018-04-29T15:56:04.994Z,3.23
2018-04-29T15:58:31.159Z,3.30
2018-04-29T16:00:57.295Z,3.10
2018-04-29T16:03:23.444Z,2.50
2018-04-29T16:05:49.593Z,2.67
2018-04-29T16:08:15.718Z,2.80
2018-04-29T16:10:41.875Z,21.10
2018-04-29T16:13:08.011Z,4.13
2018-04-29T16:15:34.197Z,3.10
2018-04-29T16:18:00.399Z,2.93
2018-04-29T16:20:26.527Z,3.00
2018-04-29T16:22:53.414Z,3.20
2018-04-29T16:25:20.270Z,3.03
2018-04-29T16:27:47.121Z,2.80
2018-04-29T16:30:14.014Z,2.80
2018-04-29T16:32:40.978Z,3.00
2018-04-29T16:35:07.095Z,3.23
2018-04-29T16:37:33.224Z,3.77
2018-04-29T16:40:00.067Z,3.57
2018-04-29T16:42:26.955Z,3.60
2018-04-29T16:44:53.453Z,3.57
2018-04-29T16:47:19.602Z,3.67
2018-04-29T16:49:45.775Z,3.03
2018-04-29T16:52:11.933Z,3.00
2018-04-29T16:54:38.089Z,3.37
2018-04-29T16:57:04.894Z,3.30
2018-04-29T16:59:31.823Z,3.57
2018-04-29T17:01:57.984Z,4.30
2018-04-29T17:04:24.105Z,2.77
2018-04-29T17:06:50.265Z,3.60
2018-04-29T17:09:16.389Z,3.00
2018-04-29T17:11:42.577Z,3.37
2018-04-29T17:14:08.687Z,3.67
2018-04-29T17:16:34.856Z,3.93
2018-04-29T17:19:01.736Z,4.13
2018-04-29T17:21:27.854Z,3.67
2018-04-29T17:23:55.783Z,4.17
2018-04-29T17:26:26.286Z,3.93
2018-04-29T17:28:53.197Z,4.10
2018-04-29T17:31:20.376Z,3.97
2018-04-29T17:33:46.858Z,3.87
2018-04-29T17:36:19.809Z,4.47
2018-04-29T17:38:46.737Z,3.70
2018-04-29T17:41:15.160Z,4.10
2018-04-29T17:43:41.299Z,4.40
2018-04-29T17:46:07.426Z,4.00
2018-04-29T17:48:34.409Z,3.87
2018-04-29T17:51:00.535Z,4.50
2018-04-29T17:53:28.539Z,4.80
2018-04-29T17:56:00.109Z,3.50
2018-04-29T17:58:27.749Z,4.10
2018-04-29T18:00:53.964Z,4.47
2018-04-29T18:03:20.340Z,3.30
2018-04-29T18:05:46.487Z,3.67
2018-04-29T18:08:12.623Z,3.33
2018-04-29T18:10:38.742Z,3.80
2018-04-29T18:13:04.871Z,3.90
2018-04-29T18:15:30.995Z,3.63
2018-04-29T18:17:57.124Z,4.00
2018-04-29T18:20:23.382Z,4.13
2018-04-29T18:22:49.530Z,4.50
2018-04-29T18:25:15.625Z,4.23
2018-04-29T18:27:47.461Z,4.40
2018-04-29T18:30:13.473Z,4.77
2018-04-29T18:32:52.389Z,4.23
2018-04-29T18:35:18.494Z,4.60
2018-04-29T18:37:49.114Z,4.77
2018-04-29T18:40:15.239Z,4.00
2018-04-29T18:42:41.351Z,5.30
2018-04-29T18:45:07.472Z,3.93
2018-04-29T18:47:33.602Z,4.20
2018-04-29T18:49:59.739Z,4.73
2018-04-29T18:52:25.861Z,4.47
2018-04-29T18:54:55.634Z,4.70
2018-04-29T18:57:21.760Z,4.80
2018-04-29T18:59:47.886Z,5.00
2018-04-29T19:02:14.743Z,4.90
2018-04-29T19:04:40.892Z,4.70
2018-04-29T19:07:07.972Z,4.90
2018-04-29T19:09:34.111Z,5.63
2018-04-29T19:12:04.425Z,5.07
2018-04-29T19:14:31.679Z,4.83
2018-04-29T19:17:05.219Z,4.33
2018-04-29T19:19:34.379Z,4.43
2018-04-29T19:22:00.543Z,4.90
2018-04-29T19:24:26.730Z,4.37
2018-04-29T19:26:53.599Z,4.47
2018-04-29T19:29:19.725Z,5.80
2018-04-29T19:31:46.598Z,5.23
2018-04-29T19:34:12.711Z,6.30
2018-04-29T19:36:39.586Z,5.30
2018-04-29T19:39:05.742Z,5.80
2018-04-29T19:41:31.852Z,5.30
2018-04-29T19:43:58.067Z,5.80
2018-04-29T19:46:24.127Z,6.43
2018-04-29T19:48:50.255Z,5.60
2018-04-29T19:51:17.095Z,5.83
2018-04-29T19:53:43.210Z,5.27
2018-04-29T19:56:09.317Z,5.27
2018-04-29T19:58:35.495Z,6.70
2018-04-29T20:01:02.453Z,5.93
2018-04-29T20:03:34.050Z,5.47
2018-04-29T20:06:00.150Z,5.60
2018-04-29T20:08:26.284Z,5.90
2018-04-29T20:10:52.425Z,5.60
2018-04-29T20:13:18.588Z,5.50
2018-04-29T20:15:44.749Z,5.53
2018-04-29T20:18:10.864Z,5.43
2018-04-29T20:20:37.203Z,5.30
2018-04-29T20:23:03.338Z,5.00
2018-04-29T20:25:29.454Z,5.40
2018-04-29T20:27:55.596Z,5.10
2018-04-29T20:30:21.814Z,5.90
2018-04-29T20:32:48.720Z,6.00
2018-04-29T20:35:14.885Z,6.30
2018-04-29T20:37:41.774Z,6.00
2018-04-29T20:40:07.891Z,6.60
2018-04-29T20:42:34.002Z,6.53
2018-04-29T20:45:00.221Z,6.37
2018-04-29T20:47:26.357Z,5.50
2018-04-29T20:49:52.467Z,5.97
2018-04-29T20:52:19.297Z,5.90
2018-04-29T20:54:45.426Z,6.00
2018-04-29T20:57:11.531Z,5.50
2018-04-29T20:59:37.678Z,5.90
2018-04-29T21:02:03.815Z,5.63
2018-04-29T21:04:29.935Z,5.83
2018-04-29T21:06:56.142Z,5.63
2018-04-29T21:09:23.052Z,5.60
2018-04-29T21:11:49.154Z,4.70
2018-04-29T21:14:15.273Z,4.70
2018-04-29T21:16:41.414Z,5.40
2018-04-29T21:19:08.314Z,5.47
2018-04-29T21:21:34.462Z,5.13
2018-04-29T21:24:00.571Z,5.10
2018-04-29T21:26:27.434Z,5.57
2018-04-29T21:28:53.549Z,5.50
2018-04-29T21:31:19.692Z,6.30
2018-04-29T21:33:45.817Z,6.30
2018-04-29T21:36:12.687Z,5.00
2018-04-29T21:38:39.634Z,5.80
2018-04-29T21:41:06.516Z,5.80
2018-04-29T21:43:32.631Z,5.70
2018-04-29T21:45:58.785Z,6.80
2018-04-29T21:48:24.927Z,6.90
2018-04-29T21:50:51.931Z,6.13
2018-04-29T21:53:18.062Z,5.83
2018-04-29T21:55:44.207Z,6.50
2018-04-29T21:58:10.335Z,7.03
2018-04-29T22:00:36.646Z,6.60
2018-04-29T22:03:02.768Z,7.07
2018-04-29T22:05:28.910Z,5.80
2018-04-29T22:07:55.791Z,5.93
2018-04-29T22:10:23.490Z,5.97
2018-04-29T22:12:49.631Z,6.03
2018-04-29T22:15:15.760Z,6.40
2018-04-29T22:17:41.915Z,6.00
2018-04-29T22:20:08.050Z,6.00
2018-04-29T22:22:34.175Z,6.53
2018-04-29T22:25:00.291Z,6.30
2018-04-29T22:27:26.411Z,6.37
2018-04-29T22:29:53.312Z,6.77
2018-04-29T22:32:19.441Z,6.50
2018-04-29T22:34:45.547Z,6.00
2018-04-29T22:37:12.518Z,6.67
2018-04-29T22:39:38.615Z,7.17
2018-04-29T22:42:05.598Z,7.00
2018-04-29T22:44:32.441Z,7.67
2018-04-29T22:46:59.302Z,6.63
2018-04-29T22:49:26.178Z,6.90
2018-04-29T22:51:52.316Z,6.53
2018-04-29T22:54:19.304Z,7.10
2018-04-29T22:56:45.430Z,6.27
2018-04-29T22:59:11.599Z,7.00
2018-04-29T23:01:37.748Z,6.53
2018-04-29T23:04:04.629Z,6.40
2018-04-29T23:06:31.495Z,7.20
2018-04-29T23:08:57.629Z,6.60
2018-04-29T23:11:23.756Z,7.03
2018-04-29T23:13:50.776Z,7.40
2018-04-29T23:16:17.735Z,6.93
2018-04-29T23:18:43.977Z,6.87
2018-04-29T23:21:10.181Z,6.93
2018-04-29T23:23:36.313Z,6.63
2018-04-29T23:26:02.442Z,7.50
2018-04-29T23:28:29.318Z,8.40
2018-04-29T23:30:55.444Z,7.63
2018-04-29T23:33:21.591Z,8.17
2018-04-29T23:35:47.711Z,9.10
2018-04-29T23:38:13.842Z,9.13
2018-04-29T23:40:40.689Z,9.40
2018-04-29T23:43:06.826Z,9.43
2018-04-29T23:45:32.940Z,10.07
2018-04-29T23:47:59.051Z,9.70
2018-04-29T23:50:25.174Z,9.30
2018-04-29T23:52:52.187Z,10.90
2018-04-29T23:55:18.346Z,10.27
2018-04-29T23:57:45.211Z,10.00
